createdAt,value
2019-06-08T00:00:38.345Z,9.38
2019-06-08T00:02:14.714Z,8.93
2019-06-08T00:03:51.169Z,9.40
2019-06-08T00:05:26.742Z,8.60
2019-06-08T00:07:03.084Z,8.28
2019-06-08T00:08:38.622Z,8.58
2019-06-08T00:10:16.808Z,8.50
2019-06-08T00:11:52.612Z,9.85
2019-06-08T00:13:28.972Z,8.23
2019-06-08T00:15:10.465Z,9.73
2019-06-08T00:16:47.053Z,9.43
2019-06-08T00:18:23.587Z,9.50
2019-06-08T00:20:00.029Z,10.00
2019-06-08T00:21:36.602Z,10.15
2019-06-08T00:23:13.759Z,9.23
2019-06-08T00:24:50.449Z,10.10
2019-06-08T00:26:28.119Z,9.30
2019-06-08T00:28:03.717Z,9.05
2019-06-08T00:29:40.056Z,8.20
2019-06-08T00:31:15.622Z,8.55
2019-06-08T00:32:53.525Z,7.72
2019-06-08T00:34:34.135Z,6.62
2019-06-08T00:36:10.756Z,6.80
2019-06-08T00:37:46.325Z,5.10
2019-06-08T00:39:23.014Z,4.90
2019-06-08T00:40:58.881Z,4.47
2019-06-08T00:42:35.314Z,3.85
2019-06-08T00:44:10.871Z,3.60
2019-06-08T00:45:47.186Z,3.45
2019-06-08T00:47:22.769Z,3.20
2019-06-08T00:48:59.098Z,3.17
2019-06-08T00:50:36.347Z,3.27
2019-06-08T00:52:13.731Z,2.82
2019-06-08T00:53:49.547Z,2.90
2019-06-08T00:55:25.908Z,2.90
2019-06-08T00:57:01.495Z,2.37
2019-06-08T00:58:37.808Z,2.17
2019-06-08T01:00:13.625Z,2.00
2019-06-08T01:01:49.980Z,2.17
2019-06-08T01:03:25.840Z,2.02
2019-06-08T01:05:02.334Z,1.72
2019-06-08T01:06:38.804Z,2.02
2019-06-08T01:08:15.164Z,1.60
2019-06-08T01:09:50.981Z,1.75
2019-06-08T01:11:28.833Z,1.70
2019-06-08T01:13:04.498Z,1.60
2019-06-08T01:14:40.858Z,1.30
2019-06-08T01:16:16.412Z,1.30
2019-06-08T01:18:02.081Z,1.70
2019-06-08T01:19:30.032Z,1.50
2019-06-08T01:21:07.023Z,1.47
2019-06-08T01:22:42.657Z,1.30
2019-06-08T01:24:19.651Z,1.50
2019-06-08T01:25:55.606Z,1.35
2019-06-08T01:27:31.949Z,1.40
2019-06-08T01:29:07.507Z,1.45
2019-06-08T01:30:43.849Z,1.15
2019-06-08T01:32:20.272Z,1.27
2019-06-08T01:33:56.666Z,1.20
2019-06-08T01:35:32.207Z,1.47
2019-06-08T01:37:08.567Z,1.33
2019-06-08T01:38:44.119Z,1.20
2019-06-08T01:40:21.326Z,1.20
2019-06-08T01:41:56.910Z,1.37
2019-06-08T01:43:33.227Z,1.20
2019-06-08T01:45:09.885Z,1.10
2019-06-08T01:46:46.326Z,1.30
2019-06-08T01:48:22.350Z,1.40
2019-06-08T01:49:58.823Z,1.00
2019-06-08T01:51:34.379Z,1.20
2019-06-08T01:53:10.732Z,1.10
2019-06-08T01:54:46.275Z,1.20
2019-06-08T01:56:22.930Z,1.00
2019-06-08T01:58:23.351Z,1.10
2019-06-08T01:59:59.893Z,1.00
2019-06-08T02:01:35.467Z,1.20
2019-06-08T02:03:11.831Z,1.10
2019-06-08T02:04:47.426Z,1.20
2019-06-08T02:06:24.205Z,1.10
2019-06-08T02:07:59.848Z,1.10
2019-06-08T02:09:36.210Z,1.00
2019-06-08T02:11:11.767Z,1.10
2019-06-08T02:12:48.225Z,0.93
2019-06-08T02:14:25.028Z,1.05
2019-06-08T02:16:01.425Z,1.00
2019-06-08T02:17:40.581Z,1.00
2019-06-08T02:19:16.951Z,1.00
2019-06-08T02:20:52.550Z,1.00
2019-06-08T02:22:29.152Z,1.00
2019-06-08T02:24:04.851Z,1.17
2019-06-08T02:25:41.455Z,0.90
2019-06-08T02:27:17.112Z,1.10
2019-06-08T02:28:53.465Z,1.10
2019-06-08T02:30:33.448Z,1.17
2019-06-08T02:32:09.358Z,0.90
2019-06-08T02:33:44.969Z,1.10
2019-06-08T02:35:21.397Z,0.87
2019-06-08T02:36:56.953Z,1.10
2019-06-08T02:38:34.595Z,1.00
2019-06-08T02:40:12.162Z,1.07
2019-06-08T02:41:48.508Z,1.10
2019-06-08T02:43:24.100Z,1.10
2019-06-08T02:45:01.513Z,1.20
2019-06-08T02:46:38.208Z,1.10
2019-06-08T02:48:15.089Z,1.20
2019-06-08T02:49:50.905Z,1.10
2019-06-08T02:51:28.757Z,1.07
2019-06-08T02:53:06.089Z,1.10
2019-06-08T02:54:42.810Z,1.00
2019-06-08T02:56:20.957Z,0.90
2019-06-08T02:57:57.861Z,1.10
2019-06-08T02:59:40.391Z,1.00
2019-06-08T03:01:18.098Z,1.10
2019-06-08T03:02:54.910Z,1.10
2019-06-08T03:04:36.510Z,1.02
2019-06-08T03:06:15.104Z,1.07
2019-06-08T03:07:53.243Z,1.23
2019-06-08T03:09:30.454Z,1.07
2019-06-08T03:11:07.937Z,1.10
2019-06-08T03:12:45.046Z,1.10
2019-06-08T03:14:24.990Z,1.03
2019-06-08T03:16:00.594Z,1.20
2019-06-08T03:17:37.731Z,1.30
2019-06-08T03:19:21.782Z,1.30
2019-06-08T03:20:51.871Z,1.20
2019-06-08T03:22:27.417Z,1.10
2019-06-08T03:24:03.808Z,1.10
2019-06-08T03:25:48.994Z,1.05
2019-06-08T03:27:17.415Z,1.10
2019-06-08T03:28:52.982Z,1.20
2019-06-08T03:30:29.314Z,1.03
2019-06-08T03:32:04.880Z,1.22
2019-06-08T03:33:50.801Z,1.25
2019-06-08T03:35:18.446Z,1.10
2019-06-08T03:36:57.534Z,1.12
2019-06-08T03:38:33.820Z,1.00
2019-06-08T03:40:10.419Z,1.02
2019-06-08T03:41:46.227Z,0.93
2019-06-08T03:43:22.578Z,1.17
2019-06-08T03:44:58.132Z,1.20
2019-06-08T03:46:36.383Z,1.10
2019-06-08T03:48:11.996Z,1.10
2019-06-08T03:49:56.386Z,1.17
2019-06-08T03:51:25.946Z,1.27
2019-06-08T03:53:03.792Z,1.13
2019-06-08T03:54:41.094Z,1.10
2019-06-08T03:56:17.391Z,1.10
2019-06-08T03:57:52.971Z,1.40
2019-06-08T03:59:29.333Z,1.20
2019-06-08T04:01:04.898Z,1.15
2019-06-08T04:02:42.313Z,0.97
2019-06-08T04:04:18.771Z,1.07
2019-06-08T04:05:55.996Z,1.33
2019-06-08T04:07:32.529Z,1.20
2019-06-08T04:09:09.602Z,1.30
2019-06-08T04:10:46.819Z,1.10
2019-06-08T04:12:23.379Z,1.33
2019-06-08T04:13:58.961Z,1.27
2019-06-08T04:15:35.364Z,1.20
2019-06-08T04:17:10.920Z,1.10
2019-06-08T04:18:47.249Z,1.10
2019-06-08T04:20:23.104Z,1.00
2019-06-08T04:21:59.439Z,1.20
2019-06-08T04:23:34.980Z,0.90
2019-06-08T04:25:11.440Z,1.05
2019-06-08T04:26:47.779Z,1.00
2019-06-08T04:31:13.940Z,1.10
2019-06-08T04:32:50.279Z,1.20
2019-06-08T04:34:25.854Z,1.10
2019-06-08T04:36:02.194Z,1.27
2019-06-08T04:37:38.379Z,1.10
2019-06-08T04:39:15.164Z,1.00
2019-06-08T04:40:50.980Z,1.00
2019-06-08T04:42:27.440Z,1.07
2019-06-08T04:44:03.015Z,1.10
2019-06-08T04:45:41.140Z,1.17
2019-06-08T04:47:16.604Z,1.10
2019-06-08T04:48:52.949Z,1.10
2019-06-08T04:50:28.858Z,1.23
2019-06-08T04:52:05.392Z,1.07
2019-06-08T04:53:43.076Z,1.00
2019-06-08T04:55:19.275Z,1.00
2019-06-08T04:57:28.666Z,1.10
2019-06-08T04:59:04.303Z,1.02
2019-06-08T05:00:41.436Z,1.00
2019-06-08T05:02:17.933Z,1.00
2019-06-08T05:03:54.437Z,1.00
2019-06-08T05:05:29.967Z,1.05
2019-06-08T05:07:06.324Z,1.10
2019-06-08T05:08:43.122Z,0.95
2019-06-08T05:10:20.460Z,1.12
2019-06-08T05:11:56.007Z,1.20
2019-06-08T05:13:32.358Z,1.00
2019-06-08T05:15:08.559Z,1.00
2019-06-08T05:16:45.356Z,1.20
2019-06-08T05:18:25.749Z,1.20
2019-06-08T05:19:59.870Z,1.05
2019-06-08T05:21:35.673Z,1.17
2019-06-08T05:23:12.121Z,1.00
2019-06-08T05:24:47.718Z,1.00
2019-06-08T05:26:24.050Z,0.90
2019-06-08T05:27:59.593Z,0.90
2019-06-08T05:29:35.957Z,0.90
2019-06-08T05:31:11.484Z,1.00
2019-06-08T05:32:47.812Z,0.95
2019-06-08T05:34:23.372Z,0.90
2019-06-08T05:35:59.703Z,1.00
2019-06-08T05:37:35.514Z,1.20
2019-06-08T05:39:11.852Z,1.20
2019-06-08T05:40:47.752Z,1.00
2019-06-08T05:42:24.126Z,1.00
2019-06-08T05:44:10.033Z,1.10
2019-06-08T05:45:48.370Z,0.90
2019-06-08T05:47:23.956Z,0.90
2019-06-08T05:49:00.332Z,0.90
2019-06-08T05:50:35.899Z,0.90
2019-06-08T05:52:12.256Z,1.00
2019-06-08T05:53:47.942Z,1.10
2019-06-08T05:55:24.311Z,1.00
2019-06-08T05:56:59.851Z,0.90
2019-06-08T05:58:36.447Z,1.00
2019-06-08T06:00:13.043Z,1.00
2019-06-08T06:01:50.839Z,1.00
2019-06-08T06:03:27.815Z,0.90
2019-06-08T06:05:04.634Z,1.10
2019-06-08T06:06:40.444Z,1.00
2019-06-08T06:08:19.292Z,0.90
2019-06-08T06:09:54.103Z,1.00
2019-06-08T06:11:30.497Z,0.90
2019-06-08T06:13:06.469Z,1.00
2019-06-08T06:14:42.881Z,0.90
2019-06-08T06:16:18.448Z,1.20
2019-06-08T06:17:54.771Z,0.90
2019-06-08T06:19:30.330Z,1.05
2019-06-08T06:21:11.173Z,1.20
2019-06-08T06:22:45.708Z,1.00
2019-06-08T06:24:22.376Z,1.02
2019-06-08T06:25:57.928Z,0.90
2019-06-08T06:27:34.255Z,0.85
2019-06-08T06:29:10.101Z,0.80
2019-06-08T06:30:47.032Z,0.93
2019-06-08T06:32:23.936Z,0.90
2019-06-08T06:34:00.307Z,1.00
2019-06-08T06:35:35.916Z,0.90
2019-06-08T06:37:12.295Z,0.80
2019-06-08T06:38:48.257Z,1.07
2019-06-08T06:40:25.803Z,1.10
2019-06-08T06:42:01.364Z,1.10
2019-06-08T06:43:37.693Z,0.90
2019-06-08T06:45:13.303Z,0.90
2019-06-08T06:46:50.168Z,1.00
2019-06-08T06:48:25.726Z,1.00
2019-06-08T06:50:02.117Z,1.00
2019-06-08T06:51:37.718Z,0.90
2019-06-08T06:53:14.093Z,0.90
2019-06-08T06:54:51.135Z,1.25
2019-06-08T06:56:27.672Z,0.88
2019-06-08T06:58:04.297Z,0.80
2019-06-08T06:59:40.643Z,0.90
2019-06-08T07:01:16.189Z,0.90
2019-06-08T07:02:53.822Z,1.00
2019-06-08T07:04:29.744Z,0.90
2019-06-08T07:06:06.122Z,1.32
2019-06-08T07:07:41.697Z,1.30
2019-06-08T07:09:18.391Z,0.95
2019-06-08T07:10:55.249Z,1.17
2019-06-08T07:12:31.936Z,1.00
2019-06-08T07:14:07.489Z,1.00
2019-06-08T07:15:44.866Z,0.90
2019-06-08T07:17:20.716Z,0.90
2019-06-08T07:18:58.645Z,0.90
2019-06-08T07:20:34.621Z,1.00
2019-06-08T07:22:10.956Z,0.90
2019-06-08T07:23:49.392Z,0.90
2019-06-08T07:25:25.499Z,0.93
2019-06-08T07:27:01.317Z,0.95
2019-06-08T07:28:37.708Z,1.32
2019-06-08T07:30:13.826Z,0.90
2019-06-08T07:31:51.566Z,1.00
2019-06-08T07:33:27.399Z,1.20
2019-06-08T07:35:04.450Z,1.90
2019-06-08T07:36:39.999Z,2.47
2019-06-08T07:38:16.346Z,2.60
2019-06-08T07:39:51.932Z,2.60
2019-06-08T07:41:28.253Z,2.40
2019-06-08T07:43:03.950Z,1.87
2019-06-08T07:44:40.277Z,1.50
2019-06-08T07:46:15.820Z,1.42
2019-06-08T07:47:52.147Z,1.42
2019-06-08T07:49:27.731Z,1.10
2019-06-08T07:51:04.023Z,1.30
2019-06-08T07:52:39.575Z,1.20
2019-06-08T07:54:16.000Z,1.10
2019-06-08T07:55:51.590Z,1.17
2019-06-08T07:57:27.965Z,1.10
2019-06-08T07:59:03.579Z,1.05
2019-06-08T08:00:39.937Z,0.80
2019-06-08T08:02:15.500Z,1.10
2019-06-08T08:03:52.153Z,1.10
2019-06-08T08:05:28.115Z,1.00
2019-06-08T08:07:04.506Z,1.17
2019-06-08T08:08:40.074Z,1.00
2019-06-08T08:10:16.698Z,1.00
2019-06-08T08:11:53.307Z,0.93
2019-06-08T08:13:29.764Z,1.05
2019-06-08T08:15:07.326Z,1.22
2019-06-08T08:16:43.757Z,1.00
2019-06-08T08:18:19.384Z,1.00
2019-06-08T08:19:57.112Z,0.90
2019-06-08T08:21:33.264Z,1.00
2019-06-08T08:23:09.599Z,1.10
2019-06-08T08:24:48.161Z,1.22
2019-06-08T08:26:23.458Z,1.10
2019-06-08T08:28:01.111Z,1.27
2019-06-08T08:29:38.408Z,1.15
2019-06-08T08:31:15.483Z,1.00
2019-06-08T08:32:53.091Z,1.00
2019-06-08T08:34:29.121Z,0.95
2019-06-08T08:36:07.280Z,1.05
2019-06-08T08:37:43.022Z,0.90
2019-06-08T08:39:19.565Z,1.00
2019-06-08T08:40:56.667Z,1.20
2019-06-08T08:42:33.606Z,1.50
2019-06-08T08:44:09.174Z,1.17
2019-06-08T08:45:47.565Z,1.02
2019-06-08T08:47:22.736Z,1.10
2019-06-08T08:49:08.437Z,1.07
2019-06-08T08:50:38.262Z,1.10
2019-06-08T08:52:14.633Z,0.90
2019-06-08T08:53:53.870Z,1.10
2019-06-08T08:55:28.205Z,1.20
2019-06-08T08:57:05.183Z,0.90
2019-06-08T08:58:42.206Z,1.07
2019-06-08T09:00:18.271Z,1.12
2019-06-08T09:01:54.823Z,1.00
2019-06-08T09:03:33.716Z,1.20
2019-06-08T09:05:08.815Z,1.10
2019-06-08T09:06:44.598Z,1.02
2019-06-08T09:08:23.227Z,1.10
2019-06-08T09:10:01.559Z,1.07
2019-06-08T09:11:38.391Z,1.17
2019-06-08T09:13:14.239Z,1.00
2019-06-08T09:14:51.876Z,1.22
2019-06-08T09:16:28.814Z,1.00
2019-06-08T09:18:07.946Z,1.32
2019-06-08T09:19:42.609Z,1.40
2019-06-08T09:21:18.924Z,1.12
2019-06-08T09:23:03.881Z,1.20
2019-06-08T09:24:32.577Z,1.17
2019-06-08T09:26:12.375Z,1.10
2019-06-08T09:27:48.263Z,1.00
2019-06-08T09:29:23.725Z,1.02
2019-06-08T09:31:02.453Z,1.00
2019-06-08T09:32:38.277Z,1.10
2019-06-08T09:34:15.658Z,1.10
2019-06-08T09:35:52.994Z,1.25
2019-06-08T09:37:29.875Z,1.00
2019-06-08T09:39:12.337Z,1.10
2019-06-08T09:40:48.737Z,1.15
2019-06-08T09:42:23.366Z,1.10
2019-06-08T09:44:03.166Z,1.22
2019-06-08T09:45:38.174Z,1.07
2019-06-08T09:47:14.727Z,1.27
2019-06-08T09:48:50.325Z,1.32
2019-06-08T09:50:27.815Z,1.10
2019-06-08T09:52:05.125Z,1.37
2019-06-08T09:53:41.944Z,1.40
2019-06-08T09:55:18.095Z,1.00
2019-06-08T09:56:55.779Z,1.10
2019-06-08T09:58:31.462Z,1.20
2019-06-08T10:00:17.989Z,1.27
2019-06-08T10:01:47.433Z,1.20
2019-06-08T10:03:23.755Z,1.20
2019-06-08T10:05:02.100Z,1.20
2019-06-08T10:06:37.671Z,1.37
2019-06-08T10:08:14.633Z,1.30
2019-06-08T10:09:50.977Z,1.32
2019-06-08T10:11:28.114Z,1.37
2019-06-08T10:13:09.343Z,1.30
2019-06-08T10:14:43.047Z,1.20
2019-06-08T10:16:19.407Z,1.30
2019-06-08T10:17:56.787Z,1.32
2019-06-08T10:19:33.314Z,1.20
2019-06-08T10:21:09.649Z,1.15
2019-06-08T10:22:49.958Z,1.60
2019-06-08T10:24:24.949Z,1.20
2019-06-08T10:26:02.897Z,1.20
2019-06-08T10:27:38.743Z,1.07
2019-06-08T10:29:15.161Z,1.10
2019-06-08T10:30:50.719Z,1.20
2019-06-08T10:32:28.200Z,1.30
2019-06-08T10:34:06.170Z,1.50
2019-06-08T10:35:42.115Z,1.10
2019-06-08T10:37:18.606Z,1.20
2019-06-08T10:38:56.718Z,1.30
2019-06-08T10:40:32.407Z,1.60
2019-06-08T10:42:11.062Z,1.23
2019-06-08T10:43:48.223Z,1.32
2019-06-08T10:45:25.014Z,1.40
2019-06-08T10:47:03.260Z,1.32
2019-06-08T10:48:38.652Z,1.52
2019-06-08T10:50:19.057Z,1.95
2019-06-08T10:51:54.550Z,2.45
2019-06-08T10:53:45.196Z,2.80
2019-06-08T10:55:10.492Z,1.67
2019-06-08T10:56:48.527Z,1.40
2019-06-08T10:58:24.555Z,1.20
2019-06-08T11:00:01.490Z,1.20
2019-06-08T11:01:38.658Z,1.30
2019-06-08T11:03:14.307Z,1.30
2019-06-08T11:04:50.844Z,1.25
2019-06-08T11:06:27.188Z,1.30
2019-06-08T11:08:04.494Z,1.10
2019-06-08T11:09:40.995Z,1.20
2019-06-08T11:11:20.049Z,1.20
2019-06-08T11:12:54.726Z,1.10
2019-06-08T11:14:31.055Z,1.27
2019-06-08T11:16:11.219Z,1.20
2019-06-08T11:17:44.882Z,1.30
2019-06-08T11:19:20.708Z,1.40
2019-06-08T11:20:59.837Z,1.20
2019-06-08T11:22:35.267Z,1.25
2019-06-08T11:24:21.637Z,1.20
2019-06-08T11:25:48.971Z,1.30
2019-06-08T11:27:25.368Z,1.30
2019-06-08T11:29:01.547Z,1.20
2019-06-08T11:30:38.965Z,1.07
2019-06-08T11:32:18.242Z,1.40
2019-06-08T11:33:54.149Z,1.40
2019-06-08T11:35:29.709Z,1.50
2019-06-08T11:37:09.378Z,1.20
2019-06-08T11:38:43.472Z,1.32
2019-06-08T11:40:20.715Z,1.07
2019-06-08T11:41:58.789Z,1.20
2019-06-08T11:43:38.008Z,1.30
2019-06-08T11:45:13.699Z,1.30
2019-06-08T11:46:50.067Z,1.30
2019-06-08T11:48:28.478Z,1.30
2019-06-08T11:50:12.580Z,1.10
2019-06-08T11:51:47.700Z,1.27
2019-06-08T11:53:23.415Z,1.00
2019-06-08T11:55:00.680Z,1.32
2019-06-08T11:56:40.324Z,1.10
2019-06-08T11:58:22.175Z,1.30
2019-06-08T11:59:58.462Z,1.27
2019-06-08T12:01:33.646Z,1.30
2019-06-08T12:03:11.509Z,1.20
2019-06-08T12:04:47.858Z,1.20
2019-06-08T12:06:24.198Z,1.00
2019-06-08T12:08:00.017Z,1.00
2019-06-08T12:09:36.593Z,1.10
2019-06-08T12:11:18.746Z,1.25
2019-06-08T12:12:50.185Z,1.07
2019-06-08T12:14:25.739Z,1.15
2019-06-08T12:16:03.093Z,1.45
2019-06-08T12:17:38.697Z,1.12
2019-06-08T12:19:17.195Z,0.98
2019-06-08T12:20:52.548Z,1.20
2019-06-08T12:22:28.887Z,1.22
2019-06-08T12:24:06.043Z,1.10
2019-06-08T12:25:42.586Z,1.50
2019-06-08T12:27:29.489Z,1.30
2019-06-08T12:29:01.254Z,1.17
2019-06-08T12:30:38.351Z,1.10
2019-06-08T12:32:15.589Z,1.20
2019-06-08T12:33:51.500Z,1.62
2019-06-08T12:35:28.769Z,1.20
2019-06-08T12:37:05.365Z,1.22
2019-06-08T12:38:41.749Z,1.00
2019-06-08T12:40:19.548Z,1.30
2019-06-08T12:41:55.329Z,1.27
2019-06-08T12:43:30.888Z,1.10
2019-06-08T12:45:09.335Z,1.20
2019-06-08T12:46:45.078Z,1.10
2019-06-08T12:48:24.914Z,1.12
2019-06-08T12:49:59.363Z,1.40
2019-06-08T12:51:35.688Z,1.10
2019-06-08T12:53:15.982Z,1.10
2019-06-08T12:55:02.659Z,1.30
2019-06-08T12:56:28.612Z,1.22
2019-06-08T12:58:04.575Z,1.20
2019-06-08T12:59:41.453Z,1.17
2019-06-08T13:01:18.934Z,1.25
2019-06-08T13:02:54.903Z,1.25
2019-06-08T13:04:31.298Z,1.30
2019-06-08T13:06:07.887Z,1.10
2019-06-08T13:07:47.397Z,1.20
2019-06-08T13:09:22.401Z,1.30
2019-06-08T13:11:00.306Z,1.15
2019-06-08T13:12:40.359Z,1.20
2019-06-08T13:14:14.732Z,1.12
2019-06-08T13:15:51.263Z,1.27
2019-06-08T13:17:28.006Z,1.40
2019-06-08T13:19:03.874Z,1.37
2019-06-08T13:20:40.201Z,1.22
2019-06-08T13:22:23.068Z,1.67
2019-06-08T13:23:55.415Z,1.37
2019-06-08T13:25:39.546Z,1.40
2019-06-08T13:27:11.878Z,1.20
2019-06-08T13:28:46.573Z,1.40
2019-06-08T13:31:55.798Z,1.67
2019-06-08T13:33:32.672Z,1.50
2019-06-08T13:35:10.386Z,1.60
2019-06-08T13:36:48.482Z,1.50
2019-06-08T13:38:27.631Z,1.40
2019-06-08T13:40:03.293Z,1.30
2019-06-08T13:41:38.826Z,1.47
2019-06-08T13:43:15.361Z,1.40
2019-06-08T13:44:51.071Z,1.57
2019-06-08T13:46:28.111Z,1.40
2019-06-08T13:48:03.854Z,1.37
2019-06-08T13:49:40.273Z,1.33
2019-06-08T13:51:19.371Z,1.42
2019-06-08T13:52:53.870Z,1.60
2019-06-08T13:54:31.344Z,1.50
2019-06-08T13:56:07.987Z,1.57
2019-06-08T13:57:43.561Z,1.50
2019-06-08T13:59:25.798Z,1.80
2019-06-08T14:00:59.720Z,1.72
2019-06-08T14:02:35.436Z,1.52
2019-06-08T14:04:11.982Z,1.80
2019-06-08T14:05:48.571Z,1.50
2019-06-08T14:07:28.463Z,1.50
2019-06-08T14:09:02.158Z,1.50
2019-06-08T14:10:43.184Z,1.65
2019-06-08T14:12:21.492Z,1.30
2019-06-08T14:14:00.834Z,1.30
2019-06-08T14:15:34.882Z,1.30
2019-06-08T14:17:11.046Z,1.22
2019-06-08T14:18:48.574Z,1.30
2019-06-08T14:20:32.471Z,1.12
2019-06-08T14:22:04.535Z,1.20
2019-06-08T14:23:41.394Z,1.45
2019-06-08T14:25:20.105Z,1.30
2019-06-08T14:26:55.190Z,1.50
2019-06-08T14:28:32.250Z,2.00
2019-06-08T14:30:08.589Z,2.60
2019-06-08T14:31:45.080Z,2.27
2019-06-08T14:33:25.249Z,1.87
2019-06-08T14:34:58.717Z,1.52
2019-06-08T14:36:34.285Z,1.57
2019-06-08T14:38:10.919Z,1.30
2019-06-08T14:39:48.506Z,1.60
2019-06-08T14:41:24.648Z,1.50
2019-06-08T14:43:00.499Z,1.57
2019-06-08T14:44:38.076Z,1.50
2019-06-08T14:46:13.909Z,1.47
2019-06-08T14:47:50.360Z,1.40
2019-06-08T14:49:30.512Z,1.50
2019-06-08T14:51:04.642Z,1.58
2019-06-08T14:52:40.208Z,1.50
2019-06-08T14:54:18.780Z,1.40
2019-06-08T14:56:05.792Z,1.70
2019-06-08T14:57:31.913Z,1.40
2019-06-08T14:59:08.236Z,1.42
2019-06-08T15:00:44.918Z,1.70
2019-06-08T15:02:21.183Z,1.37
2019-06-08T15:03:58.593Z,1.40
2019-06-08T15:05:36.482Z,1.27
2019-06-08T15:07:12.812Z,1.40
2019-06-08T15:08:50.392Z,1.35
2019-06-08T15:10:28.490Z,1.70
2019-06-08T15:12:03.888Z,1.55
2019-06-08T15:13:40.670Z,1.67
2019-06-08T15:15:18.491Z,1.50
2019-06-08T15:16:54.415Z,1.50
2019-06-08T15:18:31.798Z,1.70
2019-06-08T15:20:11.191Z,1.35
2019-06-08T15:21:48.469Z,1.52
2019-06-08T15:23:24.831Z,1.30
2019-06-08T15:25:01.204Z,1.35
2019-06-08T15:26:42.785Z,1.42
2019-06-08T15:28:14.834Z,1.77
2019-06-08T15:29:50.585Z,1.40
2019-06-08T15:31:29.481Z,1.52
2019-06-08T15:33:04.610Z,1.65
2019-06-08T15:34:41.316Z,1.75
2019-06-08T15:36:20.284Z,1.62
2019-06-08T15:37:55.010Z,1.47
2019-06-08T15:39:33.675Z,1.62
2019-06-08T15:41:09.439Z,1.57
2019-06-08T15:42:45.046Z,1.80
2019-06-08T15:44:23.138Z,1.70
2019-06-08T15:45:59.256Z,1.62
2019-06-08T15:47:35.884Z,1.47
2019-06-08T15:49:11.511Z,1.60
2019-06-08T15:50:49.447Z,1.43
2019-06-08T15:52:27.171Z,1.67
2019-06-08T15:54:04.347Z,1.40
2019-06-08T15:55:40.283Z,1.53
2019-06-08T15:57:17.981Z,1.40
2019-06-08T15:58:53.798Z,1.40
2019-06-08T16:00:32.777Z,1.60
2019-06-08T16:02:08.332Z,1.35
2019-06-08T16:03:44.986Z,1.37
2019-06-08T16:05:21.542Z,1.40
2019-06-08T16:06:57.854Z,1.55
2019-06-08T16:08:37.456Z,1.50
2019-06-08T16:10:11.903Z,1.70
2019-06-08T16:11:47.461Z,1.45
2019-06-08T16:13:24.690Z,1.47
2019-06-08T16:15:00.442Z,1.72
2019-06-08T16:16:36.817Z,1.87
2019-06-08T16:18:12.395Z,1.90
2019-06-08T16:19:48.892Z,1.80
2019-06-08T16:21:25.333Z,1.60
2019-06-08T16:23:01.750Z,1.62
2019-06-08T16:24:40.386Z,1.62
2019-06-08T16:26:17.404Z,1.67
2019-06-08T16:27:52.961Z,1.50
2019-06-08T16:29:29.333Z,1.50
2019-06-08T16:31:05.651Z,1.62
2019-06-08T16:32:42.412Z,1.75
2019-06-08T16:34:18.007Z,1.40
2019-06-08T16:35:54.370Z,1.40
2019-06-08T16:37:30.123Z,1.40
2019-06-08T16:39:08.998Z,1.47
2019-06-08T16:40:44.537Z,1.46
2019-06-08T16:42:21.569Z,1.60
2019-06-08T16:43:57.616Z,1.53
2019-06-08T16:45:35.205Z,1.60
2019-06-08T16:47:11.101Z,1.70
2019-06-08T16:48:47.479Z,1.70
2019-06-08T16:50:25.123Z,1.73
2019-06-08T16:52:01.849Z,1.22
2019-06-08T16:53:37.401Z,1.70
2019-06-08T16:55:13.814Z,1.55
2019-06-08T16:56:49.627Z,1.50
2019-06-08T16:58:25.953Z,1.70
2019-06-08T17:00:29.851Z,1.60
2019-06-08T17:01:41.932Z,1.65
2019-06-08T17:03:17.508Z,1.72
2019-06-08T17:04:54.111Z,3.25
2019-06-08T17:06:31.049Z,3.90
2019-06-08T17:10:13.913Z,2.80
2019-06-08T17:11:52.528Z,2.50
2019-06-08T17:13:28.103Z,2.13
2019-06-08T17:15:05.382Z,2.90
2019-06-08T17:16:41.717Z,4.47
2019-06-08T17:18:18.035Z,5.22
2019-06-08T17:19:53.588Z,5.20
2019-06-08T17:21:30.433Z,4.20
2019-06-08T17:23:06.030Z,4.12
2019-06-08T17:24:42.967Z,3.12
2019-06-08T17:26:18.546Z,3.75
2019-06-08T17:27:54.874Z,4.25
2019-06-08T17:29:30.742Z,4.60
2019-06-08T17:31:07.059Z,5.17
2019-06-08T17:32:44.228Z,5.03
2019-06-08T17:34:20.924Z,5.00
2019-06-08T17:35:57.183Z,4.92
2019-06-08T17:37:33.708Z,3.50
2019-06-08T17:39:09.292Z,3.37
2019-06-08T17:40:45.617Z,3.30
2019-06-08T17:42:21.446Z,3.60
2019-06-08T17:43:57.780Z,3.40
2019-06-08T17:45:34.206Z,3.52
2019-06-08T17:47:10.664Z,3.12
2019-06-08T17:48:46.290Z,3.50
2019-06-08T17:50:22.702Z,2.80
2019-06-08T17:51:58.257Z,3.37
2019-06-08T17:53:35.146Z,3.27
2019-06-08T17:55:11.597Z,3.72
2019-06-08T17:56:47.930Z,3.33
2019-06-08T17:58:23.485Z,3.20
2019-06-08T17:59:59.825Z,2.95
2019-06-08T18:01:35.983Z,2.83
2019-06-08T18:03:12.347Z,2.58
2019-06-08T18:04:48.529Z,2.76
2019-06-08T18:06:27.107Z,2.30
2019-06-08T18:08:02.426Z,2.22
2019-06-08T18:09:40.671Z,2.15
2019-06-08T18:11:17.458Z,2.00
2019-06-08T18:12:53.822Z,2.52
2019-06-08T18:14:30.833Z,3.30
2019-06-08T18:16:08.284Z,3.77
2019-06-08T18:17:45.340Z,3.30
2019-06-08T18:19:30.585Z,3.97
2019-06-08T18:21:08.136Z,4.90
2019-06-08T18:22:46.526Z,5.05
2019-06-08T18:24:23.036Z,5.47
2019-06-08T18:25:58.594Z,4.75
2019-06-08T18:27:38.057Z,4.75
2019-06-08T18:29:12.468Z,4.72
2019-06-08T18:30:49.504Z,4.10
2019-06-08T18:32:27.074Z,4.05
2019-06-08T18:34:03.124Z,4.87
2019-06-08T18:35:41.226Z,5.00
2019-06-08T18:37:18.052Z,5.03
2019-06-08T18:38:53.732Z,4.75
2019-06-08T18:40:30.072Z,4.83
2019-06-08T18:42:08.060Z,4.92
2019-06-08T18:43:44.132Z,4.05
2019-06-08T18:45:20.790Z,4.58
2019-06-08T18:46:57.706Z,4.20
2019-06-08T18:48:33.608Z,4.70
2019-06-08T18:50:10.015Z,4.28
2019-06-08T18:51:48.366Z,3.25
2019-06-08T18:53:23.980Z,3.12
2019-06-08T18:54:59.533Z,2.40
2019-06-08T18:56:38.703Z,2.20
2019-06-08T18:58:23.794Z,2.67
2019-06-08T18:59:53.277Z,2.10
2019-06-08T19:01:28.909Z,2.08
2019-06-08T19:03:07.151Z,2.27
2019-06-08T19:04:43.133Z,2.17
2019-06-08T19:06:19.476Z,2.37
2019-06-08T19:07:57.231Z,2.47
2019-06-08T19:09:37.108Z,2.60
2019-06-08T19:11:12.513Z,3.00
2019-06-08T19:12:50.659Z,2.47
2019-06-08T19:14:28.638Z,2.67
2019-06-08T19:16:04.383Z,2.30
2019-06-08T19:17:46.599Z,2.45
2019-06-08T19:19:18.434Z,2.37
2019-06-08T19:20:54.246Z,2.60
2019-06-08T19:22:30.874Z,2.47
2019-06-08T19:24:09.604Z,2.50
2019-06-08T19:25:47.755Z,2.80
2019-06-08T19:27:22.490Z,2.90
2019-06-08T19:28:59.805Z,2.90
2019-06-08T19:30:37.918Z,2.95
2019-06-08T19:32:13.393Z,2.60
2019-06-08T19:33:53.342Z,3.00
2019-06-08T19:35:27.477Z,2.63
2019-06-08T19:37:03.998Z,3.30
2019-06-08T19:38:41.317Z,3.00
2019-06-08T19:40:18.819Z,3.20
2019-06-08T19:41:57.205Z,3.80
2019-06-08T19:43:32.413Z,3.90
2019-06-08T19:45:08.984Z,3.97
2019-06-08T19:46:49.531Z,4.50
2019-06-08T19:48:22.848Z,4.55
2019-06-08T19:49:58.386Z,6.15
2019-06-08T19:51:34.726Z,6.58
2019-06-08T19:53:10.358Z,7.40
2019-06-08T19:54:52.163Z,6.37
2019-06-08T19:56:24.023Z,6.60
2019-06-08T19:58:00.376Z,6.62
2019-06-08T19:59:38.100Z,6.70
2019-06-08T20:01:13.961Z,6.62
2019-06-08T20:02:53.371Z,6.65
2019-06-08T20:04:27.835Z,6.40
2019-06-08T20:06:03.670Z,6.30
2019-06-08T20:07:40.760Z,7.53
2019-06-08T20:09:17.381Z,8.85
2019-06-08T20:10:53.919Z,8.75
2019-06-08T20:12:29.739Z,8.00
2019-06-08T20:14:08.060Z,7.22
2019-06-08T20:15:47.349Z,6.73
2019-06-08T20:17:21.606Z,6.42
2019-06-08T20:18:58.573Z,6.10
2019-06-08T20:20:34.965Z,6.42
2019-06-08T20:22:10.530Z,6.10
2019-06-08T20:23:48.278Z,6.50
2019-06-08T20:25:24.473Z,6.30
2019-06-08T20:27:00.807Z,6.10
2019-06-08T20:28:37.289Z,5.67
2019-06-08T20:30:13.947Z,5.00
2019-06-08T20:31:51.460Z,4.80
2019-06-08T20:33:27.608Z,5.37
2019-06-08T20:35:03.765Z,5.17
2019-06-08T20:36:42.193Z,4.15
2019-06-08T20:38:25.850Z,4.33
2019-06-08T20:40:06.753Z,4.53
2019-06-08T20:41:33.409Z,4.62
2019-06-08T20:43:09.733Z,4.30
2019-06-08T20:44:46.690Z,4.40
2019-06-08T20:46:23.341Z,5.17
2019-06-08T20:47:58.892Z,4.60
2019-06-08T20:49:37.198Z,5.22
2019-06-08T20:51:12.491Z,5.03
2019-06-08T20:52:49.712Z,4.63
2019-06-08T20:54:27.843Z,5.10
2019-06-08T20:56:04.351Z,4.90
2019-06-08T20:57:40.886Z,4.67
2019-06-08T20:59:29.543Z,4.90
2019-06-08T21:00:54.814Z,6.63
2019-06-08T21:02:31.173Z,7.28
2019-06-08T21:04:07.610Z,7.17
2019-06-08T21:05:46.226Z,5.90
2019-06-08T21:07:23.015Z,5.80
2019-06-08T21:08:59.947Z,4.97
2019-06-08T21:10:37.792Z,5.50
2019-06-08T21:12:13.618Z,5.50
2019-06-08T21:13:51.176Z,4.93
2019-06-08T21:15:27.565Z,5.17
2019-06-08T21:17:03.218Z,5.22
2019-06-08T21:18:39.565Z,5.22
2019-06-08T21:20:17.577Z,5.70
2019-06-08T21:21:55.827Z,5.20
2019-06-08T21:23:32.250Z,5.10
2019-06-08T21:25:09.165Z,5.45
2019-06-08T21:26:46.165Z,5.33
2019-06-08T21:28:24.556Z,5.50
2019-06-08T21:30:08.466Z,4.75
2019-06-08T21:31:38.318Z,5.03
2019-06-08T21:33:13.887Z,5.20
2019-06-08T21:34:52.044Z,5.37